createdAt,value
2023-04-26T00:01:35.624Z,2.10
2023-04-26T00:06:37.404Z,2.10
2023-04-26T00:11:38.936Z,2.00
2023-04-26T00:16:40.657Z,2.57
2023-04-26T00:21:42.262Z,2.00
2023-04-26T00:26:43.862Z,1.83
2023-04-26T00:31:45.574Z,2.13
2023-04-26T00:36:48.073Z,2.20
2023-04-26T00:41:49.988Z,2.13
2023-04-26T00:46:53.538Z,2.10
2023-04-26T00:51:55.412Z,2.43
2023-04-26T00:56:57.547Z,2.20
2023-04-26T01:02:00.167Z,2.20
2023-04-26T01:07:02.937Z,2.33
2023-04-26T01:12:08.251Z,2.23
2023-04-26T01:17:09.982Z,2.40
2023-04-26T01:22:11.637Z,2.40
2023-04-26T01:27:13.658Z,2.33
2023-04-26T01:32:16.132Z,2.30
2023-04-26T01:37:17.763Z,2.33
2023-04-26T01:42:19.308Z,2.40
2023-04-26T01:47:21.426Z,2.10
2023-04-26T01:52:23.058Z,2.20
2023-04-26T01:57:24.700Z,2.50
2023-04-26T02:02:26.601Z,2.30
2023-04-26T02:07:28.301Z,2.13
2023-04-26T02:12:31.133Z,2.30
2023-04-26T02:17:33.760Z,2.10
2023-04-26T02:22:35.520Z,2.70
2023-04-26T02:27:37.332Z,2.40
2023-04-26T02:32:39.173Z,2.30
2023-04-26T02:37:40.941Z,2.43
2023-04-26T02:42:42.640Z,2.27
2023-04-26T02:47:44.333Z,2.30
2023-04-26T02:52:46.063Z,2.77
2023-04-26T02:57:47.893Z,2.60
2023-04-26T03:02:49.650Z,2.57
2023-04-26T03:07:52.919Z,2.50
2023-04-26T03:12:54.551Z,2.70
2023-04-26T03:17:58.089Z,2.57
2023-04-26T03:23:00.049Z,2.47
2023-04-26T03:28:01.744Z,2.70
2023-04-26T03:33:03.697Z,2.50
2023-04-26T03:38:05.529Z,2.37
2023-04-26T03:43:07.416Z,2.50
2023-04-26T03:48:09.214Z,2.50
2023-04-26T03:53:11.793Z,2.60
2023-04-26T03:58:14.674Z,2.63
2023-04-26T04:03:18.141Z,2.53
2023-04-26T04:08:19.918Z,2.60
2023-04-26T04:13:21.817Z,2.60
2023-04-26T04:18:24.388Z,2.87
2023-04-26T04:23:27.643Z,2.70
2023-04-26T04:28:29.947Z,2.90
2023-04-26T04:33:31.855Z,2.60
2023-04-26T04:38:34.261Z,2.60
2023-04-26T04:43:38.673Z,2.60
2023-04-26T04:48:42.117Z,2.90
2023-04-26T04:53:43.855Z,3.53
2023-04-26T04:58:46.369Z,2.80
2023-04-26T05:03:49.194Z,3.17
2023-04-26T05:08:51.145Z,3.13
2023-04-26T05:13:53.456Z,3.10
2023-04-26T05:18:55.849Z,2.93
2023-04-26T05:23:58.011Z,3.00
2023-04-26T05:29:01.235Z,3.03
2023-04-26T05:34:31.686Z,2.70
2023-04-26T05:39:33.632Z,2.80
2023-04-26T05:44:36.720Z,2.87
2023-04-26T05:49:38.460Z,2.30
2023-04-26T05:54:40.477Z,2.43
2023-04-26T05:59:42.228Z,2.30
2023-04-26T06:04:44.220Z,2.10
2023-04-26T06:09:48.746Z,2.07
2023-04-26T06:14:50.905Z,2.63
2023-04-26T06:19:56.373Z,2.27
2023-04-26T06:24:58.614Z,2.37
2023-04-26T06:30:01.273Z,2.60
2023-04-26T06:35:05.605Z,2.70
2023-04-26T06:40:08.118Z,2.20
2023-04-26T06:45:11.593Z,2.40
2023-04-26T06:50:13.496Z,2.50
2023-04-26T06:55:15.159Z,2.27
2023-04-26T07:00:17.988Z,2.70
2023-04-26T07:05:20.170Z,2.90
2023-04-26T07:10:21.927Z,2.60
2023-04-26T07:15:23.507Z,2.33
2023-04-26T07:20:25.554Z,3.57
2023-04-26T07:25:27.589Z,3.00
2023-04-26T07:30:29.469Z,3.13
2023-04-26T07:35:31.526Z,2.93
2023-04-26T07:40:33.158Z,3.60
2023-04-26T07:45:34.850Z,2.93
2023-04-26T07:50:38.181Z,3.30
2023-04-26T07:55:43.517Z,3.50
2023-04-26T08:00:45.216Z,3.17
2023-04-26T08:05:47.273Z,2.80
2023-04-26T08:10:49.038Z,2.40
2023-04-26T08:15:50.640Z,2.97
2023-04-26T08:20:55.208Z,2.90
2023-04-26T08:25:56.843Z,2.43
2023-04-26T08:30:58.592Z,3.10
2023-04-26T08:36:01.713Z,3.17
2023-04-26T08:41:04.172Z,2.70
2023-04-26T08:46:08.766Z,2.53
2023-04-26T08:51:13.158Z,2.77
2023-04-26T08:56:14.808Z,2.50
2023-04-26T09:01:17.471Z,2.17
2023-04-26T09:06:19.579Z,1.83
2023-04-26T09:11:21.391Z,2.10
2023-04-26T09:16:36.927Z,2.53
2023-04-26T09:21:47.559Z,1.77
2023-04-26T09:27:03.159Z,1.80
2023-04-26T09:32:05.540Z,2.00
2023-04-26T09:37:12.556Z,1.80
2023-04-26T09:42:16.913Z,1.50
2023-04-26T09:47:18.631Z,1.60
2023-04-26T09:52:20.524Z,1.60
2023-04-26T09:57:23.448Z,1.37
2023-04-26T10:02:26.769Z,1.70
2023-04-26T10:07:30.380Z,1.40
2023-04-26T10:12:32.026Z,2.10
2023-04-26T10:17:33.727Z,1.80
2023-04-26T10:22:39.975Z,1.70
2023-04-26T10:27:44.531Z,1.93
2023-04-26T10:32:52.089Z,2.00
2023-04-26T10:37:59.471Z,2.00
2023-04-26T10:43:10.616Z,1.90
2023-04-26T10:48:23.471Z,1.87
2023-04-26T10:53:25.496Z,1.60
2023-04-26T10:58:34.986Z,1.67
2023-04-26T11:03:37.444Z,1.70
2023-04-26T11:08:39.832Z,1.73
2023-04-26T11:13:42.802Z,1.60
2023-04-26T11:18:46.126Z,1.50
2023-04-26T11:23:55.247Z,2.00
2023-04-26T11:28:56.797Z,1.43
2023-04-26T11:34:04.846Z,1.50
2023-04-26T11:39:07.106Z,1.33
2023-04-26T11:44:11.560Z,1.70
2023-04-26T11:49:13.508Z,1.87
2023-04-26T11:54:35.938Z,1.53
2023-04-26T11:59:37.721Z,1.40
2023-04-26T12:04:41.185Z,1.50
2023-04-26T12:09:44.466Z,1.20
2023-04-26T12:14:47.275Z,1.50
2023-04-26T12:19:49.914Z,1.80
2023-04-26T12:25:05.277Z,1.40
2023-04-26T12:30:07.739Z,1.50
2023-04-26T12:35:09.684Z,1.50
2023-04-26T12:40:12.095Z,1.60
2023-04-26T12:45:13.797Z,1.37
2023-04-26T12:50:18.011Z,1.27
2023-04-26T12:55:20.674Z,1.67
2023-04-26T13:00:22.698Z,1.63
2023-04-26T13:05:27.286Z,1.60
2023-04-26T13:10:29.923Z,1.30
2023-04-26T13:15:31.661Z,1.67
2023-04-26T13:20:33.367Z,2.50
2023-04-26T13:25:35.131Z,1.70
2023-04-26T13:30:36.958Z,1.63
2023-04-26T13:35:38.556Z,1.50
2023-04-26T13:40:40.106Z,1.53
2023-04-26T13:45:41.758Z,1.93
2023-04-26T13:50:43.397Z,2.00
2023-04-26T13:55:45.483Z,2.03
2023-04-26T14:00:47.092Z,1.90
2023-04-26T14:05:49.324Z,2.10
2023-04-26T14:10:51.295Z,2.40
2023-04-26T14:15:53.028Z,2.50
2023-04-26T14:20:54.598Z,2.57
2023-04-26T14:25:56.273Z,2.43
2023-04-26T14:30:57.985Z,2.23
2023-04-26T14:35:59.567Z,2.03
2023-04-26T14:41:01.722Z,2.47
2023-04-26T14:46:03.562Z,2.20
2023-04-26T14:51:05.216Z,2.27
2023-04-26T14:56:08.248Z,2.17
2023-04-26T15:01:10.668Z,2.00
2023-04-26T15:06:12.357Z,1.60
2023-04-26T15:11:14.021Z,2.00
2023-04-26T15:16:16.880Z,1.87
2023-04-26T15:21:19.614Z,2.03
2023-04-26T15:26:21.517Z,1.73
2023-04-26T15:31:24.419Z,1.70
2023-04-26T15:36:26.247Z,1.73
2023-04-26T15:41:28.799Z,1.70
2023-04-26T15:46:30.317Z,1.63
2023-04-26T15:51:31.851Z,1.70
2023-04-26T15:56:33.511Z,1.70
2023-04-26T16:01:35.103Z,1.70
2023-04-26T16:06:36.687Z,1.50
2023-04-26T16:11:38.338Z,2.30
2023-04-26T16:16:41.224Z,1.80
2023-04-26T16:21:43.013Z,1.70
2023-04-26T16:26:44.710Z,1.60
2023-04-26T16:31:46.533Z,1.77
2023-04-26T16:36:48.325Z,1.83
2023-04-26T16:41:49.863Z,1.93
2023-04-26T16:46:51.387Z,1.73
2023-04-26T16:51:56.343Z,2.00
2023-04-26T16:56:58.322Z,1.90
2023-04-26T17:02:00.121Z,1.90
2023-04-26T17:07:02.027Z,2.20
2023-04-26T17:12:04.108Z,1.60
2023-04-26T17:17:05.788Z,1.70
2023-04-26T17:22:07.615Z,1.57
2023-04-26T17:27:09.346Z,1.63
2023-04-26T17:32:11.018Z,1.80
2023-04-26T17:37:12.857Z,1.50
2023-04-26T17:42:14.848Z,1.50
2023-04-26T17:47:16.403Z,1.70
2023-04-26T17:52:18.338Z,2.10
2023-04-26T17:57:23.014Z,1.70
2023-04-26T18:02:24.883Z,1.50
2023-04-26T18:07:26.640Z,1.30
2023-04-26T18:12:30.657Z,1.53
2023-04-26T18:17:32.649Z,1.57
2023-04-26T18:22:34.440Z,1.50
2023-04-26T18:27:41.482Z,1.53
2023-04-26T18:32:43.177Z,1.50
2023-04-26T18:37:44.840Z,1.40
2023-04-26T18:42:46.430Z,1.40
2023-04-26T18:47:48.191Z,1.70
2023-04-26T18:52:49.755Z,1.80
2023-04-26T18:57:51.533Z,1.60
2023-04-26T19:02:54.679Z,2.57
2023-04-26T19:07:56.560Z,1.60
2023-04-26T19:12:58.173Z,1.87
2023-04-26T19:17:59.867Z,1.50
2023-04-26T19:23:02.943Z,1.60
2023-04-26T19:28:04.539Z,1.50
2023-04-26T19:33:06.239Z,1.87
2023-04-26T19:38:08.001Z,1.60
2023-04-26T19:43:10.270Z,1.60
2023-04-26T19:48:13.271Z,1.63
2023-04-26T19:53:15.350Z,2.00
2023-04-26T19:58:17.249Z,1.73
2023-04-26T20:03:18.972Z,1.90
2023-04-26T20:08:20.771Z,1.83
2023-04-26T20:13:22.410Z,1.67
2023-04-26T20:18:24.118Z,1.70
2023-04-26T20:23:25.656Z,2.00
2023-04-26T20:28:27.397Z,1.70
2023-04-26T20:33:34.888Z,2.13
2023-04-26T20:38:36.545Z,1.60
2023-04-26T20:43:38.141Z,1.80
2023-04-26T20:48:39.837Z,1.87
2023-04-26T20:53:41.386Z,2.03
2023-04-26T20:58:43.032Z,1.67
2023-04-26T21:03:47.099Z,1.70
2023-04-26T21:08:48.842Z,1.87
2023-04-26T21:13:50.514Z,1.80
2023-04-26T21:18:52.632Z,1.80
2023-04-26T21:23:54.297Z,1.80
2023-04-26T21:28:56.766Z,1.90
2023-04-26T21:33:58.508Z,1.93
2023-04-26T21:39:01.387Z,2.07
2023-04-26T21:44:02.982Z,2.07
2023-04-26T21:49:04.670Z,1.90
2023-04-26T21:54:06.402Z,1.80
2023-04-26T21:59:10.513Z,2.00
2023-04-26T22:04:12.699Z,2.23
2023-04-26T22:09:14.432Z,2.07
2023-04-26T22:14:16.340Z,2.03
2023-04-26T22:19:17.993Z,2.23
2023-04-26T22:24:19.605Z,2.10
2023-04-26T22:29:21.255Z,2.20
2023-04-26T22:34:30.048Z,2.20
2023-04-26T22:39:31.669Z,2.50
2023-04-26T22:44:33.316Z,2.50
2023-04-26T22:49:44.290Z,2.00
2023-04-26T22:54:46.064Z,2.23
2023-04-26T22:59:47.699Z,2.30
2023-04-26T23:04:49.381Z,2.40
2023-04-26T23:09:51.093Z,2.30
2023-04-26T23:14:53.499Z,2.20
2023-04-26T23:19:56.759Z,2.53
2023-04-26T23:24:58.648Z,1.93
2023-04-26T23:30:00.402Z,2.00
2023-04-26T23:35:02.178Z,2.73
2023-04-26T23:40:06.507Z,2.57
2023-04-26T23:45:09.166Z,2.20
2023-04-26T23:50:10.884Z,2.20
2023-04-26T23:55:12.638Z,2.20
